UKON/NLV METAR and TAF weather

Enter ICAO airport designator
Station Type Date Time Source
UKON METAR 2018/12/18 15:00 UTC NOAA

UKON 181500Z 04005MPS 010V070 9999 BKN025 M03/M06 Q1027 R04/090062 NOSIG


Station Type Date Time Source
UKON Decoded METAR 2018/12/18 15:00 UTC NOAA

Mykolaiv, Ukraine (UKON) 47-03-29N 031-55-15E
Dec 18, 2018 - 10:00 AM EST / 2018.12.18 1500 UTC
Wind: from the NE (040 degrees) at 11 MPH (10 KT) (direction variable):0
Visibility: greater than 7 mile(s):0
Sky conditions: mostly cloudy
Temperature: 26 F (-3 C)
Windchill: 15 F (-9 C):1
Dew Point: 21 F (-6 C)
Relative Humidity: 79%
Pressure (altimeter): 30.33 in. Hg (1027 hPa)
ob: UKON 181500Z 04005MPS 010V070 9999 BKN025 M03/M06 Q1027 R04/090062 NOSIG
cycle: 15

Station Type Date Time Source
UKON TAF 2018/11/06 15:06 UTC NOAA

TAF
AMD TAF
AMD UKON 061502Z 0615/0724 CNL


Example: see airport list